AirNav   Air Wisconsin pilot careers
 
 1272 users online  

1S2 Darrington Municipal Airport
Darrington, Washington, USA

GOING TO DARRINGTON?


FAA INFORMATION EFFECTIVE 06 DECEMBER 2018

Location

FAA Identifier: 1S2
Lat/Long: 48-15-31.0050N / 121-36-36.7330W
48-15.516750N / 121-36.612217W
48.2586125 / -121.6102036
(estimated)
Elevation: 553 ft. / 169 m (estimated)
Variation: 21E (1985)
Time zone: UTC -8 (UTC -7 during Daylight Saving Time)
Zip code: 98241

Airport Operations

Airport use: Open to the public
Activation date: 01/1948
Control tower: no
ARTCC: SEATTLE CENTER
FSS: SEATTLE FLIGHT SERVICE STATION
NOTAMs facility: SEA (NOTAM-D service available)
Attendance: UNATNDD
Wind indicator: lighted
Segmented circle: no
Lights: ACTVT MIRL RY 10/28 BY CONTACTING AIRPORT MANAGER.
Beacon: white-green (lighted land airport)
Operates sunset to sunrise.

Airport Communications

CTAF: 122.9

Nearby radio navigation aids

VOR radial/distance  VOR name  Freq  Var
PAEr033/33.6PAINE VOR/DME110.6020E

 
NDB name  Hdg/Dist  Freq  Var  ID
SKAGIT/BAY VIEW095/34.624016EBVS -... ...- ...

Airport Services

Parking: tiedowns
Airframe service: NONE
Powerplant service: NONE
Bottled oxygen: NONE
Bulk oxygen: NONE

Runway Information

Runway 10/28

Dimensions: 2491 x 40 ft. / 759 x 12 m
Surface: asphalt, in good condition
Runway edge lights: medium intensity
MIRL RY 10/28 OTS INDEFLY.
RUNWAY 10  RUNWAY 28
Latitude: 48-15.588983N48-15.444517N
Longitude: 121-36.899333W121-36.325117W
Elevation: 544.0 ft.553.0 ft.
Traffic pattern: leftleft
Runway heading: 090 magnetic, 111 true270 magnetic, 291 true
Markings: basic, in good conditionbasic, in good condition
Obstructions: 4 ft. fence, 200 ft. from runway, 29 ft. right of centerline
FENCE AT 40', 104' RIGHT.
15 ft. road, 305 ft. from runway, 126 ft. left of centerline, 7:1 slope to clear

Airport Ownership and Management from official FAA records

Ownership: Publicly-owned
Owner: TOWN OF DARRINGTON
P.O. BOX 397
DARRINGTON, WA 98241
Phone 360-436-1131
Manager: JIM HALE
P.O. BOX 312
DARRINGTON, WA 98241
Phone 360-436-1454
MANAGER'S CELL PHONE NUMBER IS 360-631-1928.

Airport Operational Statistics

Aircraft based on the field: 11
Single engine airplanes: 5
Helicopters: 4
Gliders airplanes: 2
    
Aircraft operations: avg 44/week *
67% local general aviation
33% transient general aviation
* for 12-month period ending 31 December 2016

Additional Remarks

CLSD WHEN SNOW ON RY.
TURB ON HOT DAYS LNDG W IN TRSN EAST APPROACH.
TWYS MARKED WITH BLUE REFLECTORS.

Instrument Procedures

There are no published instrument procedures at 1S2.

Some nearby airports with instrument procedures:

KAWO - Arlington Municipal Airport (23 nm W)
S43 - Harvey Field Airport (29 nm SW)
KPAE - Snohomish County Airport (Paine Field) (34 nm SW)
KBVS - Skagit Regional Airport (35 nm W)
KNUW - Whidbey Island Naval Air Station (Ault Field) (42 nm W)
 
Loc | Ops | Rwys | IFR | FBO | Links
Com | Nav | Svcs | Stats | Notes


 
Area around 1S2 (Darrington Municipal Airport)
 
Road maps at: MapQuest Bing Google
 
Aerial photo
WARNING: Photo may not be current or correct
Aerial photo of 1S2 (Darrington Municipal Airport)
Do you have a better or more recent aerial photo of Darrington Municipal Airport that you would like to share? If so, please send us your photo.

 
Sectional chart

 
Airport distance calculator
Flying to Darrington Municipal Airport? Find the distance to fly.

From to 1S2

Sunrise and sunset
Times for 11-Dec-2018
 Local
(UTC-8)
 Zulu
(UTC)
Morning civil twilight07:1215:12
Sunrise07:4815:48
Sunset16:1100:11
Evening civil twilight16:4800:48

Current date and time
Zulu (UTC)  11-Dec-2018 14:53:48
Local (UTC-8)  11-Dec-2018 06:53:48
 
METAR
KAWO 
23nm W 
111356Z AUTO 13010KT 10SM -RA OVC029 07/04 A2994 RMK AO2 SLP144 P0002 T00670044
KPAE 
34nm SW 
111438Z AUTO VRB06KT 10SM -RA BKN011 BKN016 OVC029 06/04 A2993 RMK AO2 CIG 007V013 P0000 T00560044
KBVS 
34nm W 
111435Z AUTO 12012G22KT 10SM OVC028 09/04 A2988 RMK A01
KNUW 
42nm W 
111256Z 15034G43KT 10SM BKN022 BKN040 OVC075 10/04 A2992 RMK AO2 PK WND 14049/1241 RAB04E53 SLP131 P0000 T01000044 $
74S 
44nm W 
SuperAWOS
111335Z AUTO 10016G28KT 060V140 10SM 07/05 A2986
TAF
KPAE 
34nm SW 
111120Z 1112/1212 13010KT P6SM -RA OVC030 FM111500 16014G22KT 6SM -RA BR SCT012 OVC022 WS020/18040KT FM112100 19017G27KT 5SM RA BR OVC012 FM120300 21014G22KT P6SM -SHRA BKN022 OVC040 FM120800 24012G18KT P6SM VCSH BKN030 BKN050
KNUW 
42nm W 
1111/1207 15025G38KT 8000 -RA BR SCT025 SCT040 OVC070 WSCONDS 640509 580208 QNH2975INS TEMPO 1111/1117 15031G45KT 4800 RA BR BKN008 OVC020 FM111800 16021G35KT 6000 RA BR BKN012 BKN035 OVC060 WSCONDS 640509 550208 QNH2952INS TEMPO 1118/1123 19012G24KT 8000 -RA SCT010 BKN025 OVC080 BECMG 1123/1201 26019G30KT 8000 -SHRA BKN025 OVC050 WSCONDS 640509 540208 541208 QNH2954INS TEMPO 1204/1206 4800 -SHRA BKN015CB T08/1110Z T12/1121Z AMD 1127 FS30112
NOTAMs
Click for the latest NOTAMs
NOTAMs are issued by the DoD/FAA and will open in a separate window not controlled by AirNav.

 

 
 

Would you like to see your business listed on this page?

 If your business provides an interesting product or service to pilots, flight crews, aircraft, or users of the Darrington Municipal Airport, you should consider listing it here.  To start the listing process, click on the button below
 
Add a business
 

Other Pages about Darrington Municipal Airport

Update a link
 
Copyright © AirNav, LLC. All rights reserved. Privacy Policy  Contact